sensor_id;sensor_type;location;lat;lon;timestamp;temperature;humidity
54168;DHT22;40072;50.958;3.592;2022-10-16T00:00:26;13.60;99.90
54168;DHT22;40072;50.958;3.592;2022-10-16T00:02:52;13.50;99.90
54168;DHT22;40072;50.958;3.592;2022-10-16T00:05:18;13.50;99.90
54168;DHT22;40072;50.958;3.592;2022-10-16T00:07:43;13.50;99.90
54168;DHT22;40072;50.958;3.592;2022-10-16T00:10:09;13.50;99.90
54168;DHT22;40072;50.958;3.592;2022-10-16T00:12:34;13.40;99.90
54168;DHT22;40072;50.958;3.592;2022-10-16T00:15:00;13.40;99.90
54168;DHT22;40072;50.958;3.592;2022-10-16T00:17:26;13.30;99.90
54168;DHT22;40072;50.958;3.592;2022-10-16T00:19:51;13.30;99.90
54168;DHT22;40072;50.958;3.592;2022-10-16T00:22:17;13.30;99.90
54168;DHT22;40072;50.958;3.592;2022-10-16T00:24:42;13.20;99.90
54168;DHT22;40072;50.958;3.592;2022-10-16T00:27:08;13.20;99.90
54168;DHT22;40072;50.958;3.592;2022-10-16T00:29:34;13.10;99.90
54168;DHT22;40072;50.958;3.592;2022-10-16T00:31:59;13.10;99.90
54168;DHT22;40072;50.958;3.592;2022-10-16T00:34:25;13.10;99.90
54168;DHT22;40072;50.958;3.592;2022-10-16T00:36:50;13.10;99.90
54168;DHT22;40072;50.958;3.592;2022-10-16T00:39:16;13.10;99.90
54168;DHT22;40072;50.958;3.592;2022-10-16T00:41:42;13.10;99.90
54168;DHT22;40072;50.958;3.592;2022-10-16T00:44:47;13.00;99.90
54168;DHT22;40072;50.958;3.592;2022-10-16T00:49:50;13.00;99.90
54168;DHT22;40072;50.958;3.592;2022-10-16T00:52:17;13.00;99.90
54168;DHT22;40072;50.958;3.592;2022-10-16T00:54:43;12.90;99.90
54168;DHT22;40072;50.958;3.592;2022-10-16T00:57:10;12.90;99.90
54168;DHT22;40072;50.958;3.592;2022-10-16T00:59:38;12.90;99.90
54168;DHT22;40072;50.958;3.592;2022-10-16T01:02:07;13.00;99.90
54168;DHT22;40072;50.958;3.592;2022-10-16T01:04:52;12.90;99.90
54168;DHT22;40072;50.958;3.592;2022-10-16T01:10:27;13.00;99.90
54168;DHT22;40072;50.958;3.592;2022-10-16T01:13:10;12.90;99.90
54168;DHT22;40072;50.958;3.592;2022-10-16T01:16:05;12.90;99.90
54168;DHT22;40072;50.958;3.592;2022-10-16T01:18:37;12.90;99.90
54168;DHT22;40072;50.958;3.592;2022-10-16T01:21:08;12.90;99.90
54168;DHT22;40072;50.958;3.592;2022-10-16T01:27:15;13.00;99.90
54168;DHT22;40072;50.958;3.592;2022-10-16T01:30:07;13.00;99.90
54168;DHT22;40072;50.958;3.592;2022-10-16T01:32:42;13.00;99.90
54168;DHT22;40072;50.958;3.592;2022-10-16T01:38:00;13.00;99.90
54168;DHT22;40072;50.958;3.592;2022-10-16T01:40:29;13.00;99.90
54168;DHT22;40072;50.958;3.592;2022-10-16T01:43:08;13.00;99.90
54168;DHT22;40072;50.958;3.592;2022-10-16T01:45:34;12.90;99.90
54168;DHT22;40072;50.958;3.592;2022-10-16T01:48:02;12.90;99.90
54168;DHT22;40072;50.958;3.592;2022-10-16T01:50:32;13.00;99.90
54168;DHT22;40072;50.958;3.592;2022-10-16T01:53:02;13.00;99.90
54168;DHT22;40072;50.958;3.592;2022-10-16T01:55:29;12.90;99.90
54168;DHT22;40072;50.958;3.592;2022-10-16T01:57:57;12.90;99.90
54168;DHT22;40072;50.958;3.592;2022-10-16T02:00:24;12.90;99.90
54168;DHT22;40072;50.958;3.592;2022-10-16T02:02:53;12.90;99.90
54168;DHT22;40072;50.958;3.592;2022-10-16T02:05:32;13.00;99.90
54168;DHT22;40072;50.958;3.592;2022-10-16T02:07:59;13.00;99.90
54168;DHT22;40072;50.958;3.592;2022-10-16T02:10:25;12.90;99.90
54168;DHT22;40072;50.958;3.592;2022-10-16T02:13:00;13.00;99.90
54168;DHT22;40072;50.958;3.592;2022-10-16T02:15:28;13.00;99.90
54168;DHT22;40072;50.958;3.592;2022-10-16T02:17:54;13.00;99.90
54168;DHT22;40072;50.958;3.592;2022-10-16T02:20:25;12.90;99.90
54168;DHT22;40072;50.958;3.592;2022-10-16T02:22:54;12.90;99.90
54168;DHT22;40072;50.958;3.592;2022-10-16T02:25:32;12.90;99.90
54168;DHT22;40072;50.958;3.592;2022-10-16T02:28:46;12.90;99.90
54168;DHT22;40072;50.958;3.592;2022-10-16T02:31:07;12.90;99.90
54168;DHT22;40072;50.958;3.592;2022-10-16T02:33:34;12.80;99.90
54168;DHT22;40072;50.958;3.592;2022-10-16T02:36:01;12.80;99.90
54168;DHT22;40072;50.958;3.592;2022-10-16T02:38:27;12.80;99.90
54168;DHT22;40072;50.958;3.592;2022-10-16T02:40:54;12.80;99.90
54168;DHT22;40072;50.958;3.592;2022-10-16T02:43:20;12.70;99.90
54168;DHT22;40072;50.958;3.592;2022-10-16T02:45:46;12.70;99.90
54168;DHT22;40072;50.958;3.592;2022-10-16T02:48:11;12.70;99.90
54168;DHT22;40072;50.958;3.592;2022-10-16T02:50:37;12.60;99.90
54168;DHT22;40072;50.958;3.592;2022-10-16T02:53:03;12.70;99.90
54168;DHT22;40072;50.958;3.592;2022-10-16T02:55:28;12.70;99.90
54168;DHT22;40072;50.958;3.592;2022-10-16T02:57:54;12.60;99.90
54168;DHT22;40072;50.958;3.592;2022-10-16T03:00:20;12.60;99.90
54168;DHT22;40072;50.958;3.592;2022-10-16T03:02:46;12.60;99.90
54168;DHT22;40072;50.958;3.592;2022-10-16T03:05:13;12.70;99.90
54168;DHT22;40072;50.958;3.592;2022-10-16T03:07:39;12.70;99.90
54168;DHT22;40072;50.958;3.592;2022-10-16T03:10:05;12.70;99.90
54168;DHT22;40072;50.958;3.592;2022-10-16T03:12:31;12.70;99.90
54168;DHT22;40072;50.958;3.592;2022-10-16T03:14:57;12.70;99.90
54168;DHT22;40072;50.958;3.592;2022-10-16T03:17:24;12.70;99.90
54168;DHT22;40072;50.958;3.592;2022-10-16T03:19:49;12.70;99.90
54168;DHT22;40072;50.958;3.592;2022-10-16T03:22:15;12.70;99.90
54168;DHT22;40072;50.958;3.592;2022-10-16T03:24:41;12.70;99.90
54168;DHT22;40072;50.958;3.592;2022-10-16T03:27:08;12.70;99.90
54168;DHT22;40072;50.958;3.592;2022-10-16T03:29:33;12.60;99.90
54168;DHT22;40072;50.958;3.592;2022-10-16T03:32:00;12.60;99.90
54168;DHT22;40072;50.958;3.592;2022-10-16T03:34:25;12.70;99.90
54168;DHT22;40072;50.958;3.592;2022-10-16T03:36:51;12.70;99.90
54168;DHT22;40072;50.958;3.592;2022-10-16T03:39:18;12.70;99.90
54168;DHT22;40072;50.958;3.592;2022-10-16T03:41:44;12.70;99.90
54168;DHT22;40072;50.958;3.592;2022-10-16T03:44:09;12.70;99.90
54168;DHT22;40072;50.958;3.592;2022-10-16T03:46:35;12.70;99.90
54168;DHT22;40072;50.958;3.592;2022-10-16T03:49:00;12.70;99.90
54168;DHT22;40072;50.958;3.592;2022-10-16T03:51:26;12.70;99.90
54168;DHT22;40072;50.958;3.592;2022-10-16T03:53:52;12.70;99.90
54168;DHT22;40072;50.958;3.592;2022-10-16T03:56:18;12.70;99.90
54168;DHT22;40072;50.958;3.592;2022-10-16T03:58:44;12.70;99.90
54168;DHT22;40072;50.958;3.592;2022-10-16T04:01:09;12.60;99.90
54168;DHT22;40072;50.958;3.592;2022-10-16T04:03:35;12.60;99.90
54168;DHT22;40072;50.958;3.592;2022-10-16T04:06:00;12.60;99.90
54168;DHT22;40072;50.958;3.592;2022-10-16T04:08:26;12.70;99.90
54168;DHT22;40072;50.958;3.592;2022-10-16T04:10:52;12.60;99.90
54168;DHT22;40072;50.958;3.592;2022-10-16T04:13:18;12.60;99.90
54168;DHT22;40072;50.958;3.592;2022-10-16T04:15:44;12.60;99.90
54168;DHT22;40072;50.958;3.592;2022-10-16T04:18:10;12.60;99.90
54168;DHT22;40072;50.958;3.592;2022-10-16T04:20:36;12.60;99.90
54168;DHT22;40072;50.958;3.592;2022-10-16T04:23:01;12.60;99.90
54168;DHT22;40072;50.958;3.592;2022-10-16T04:25:27;12.50;99.90
54168;DHT22;40072;50.958;3.592;2022-10-16T04:27:53;12.50;99.90
54168;DHT22;40072;50.958;3.592;2022-10-16T04:30:20;12.60;99.90
54168;DHT22;40072;50.958;3.592;2022-10-16T04:32:50;12.50;99.90
54168;DHT22;40072;50.958;3.592;2022-10-16T04:35:16;12.50;99.90
54168;DHT22;40072;50.958;3.592;2022-10-16T04:37:42;12.50;99.90
54168;DHT22;40072;50.958;3.592;2022-10-16T04:40:07;12.50;99.90
54168;DHT22;40072;50.958;3.592;2022-10-16T04:42:33;12.50;99.90
54168;DHT22;40072;50.958;3.592;2022-10-16T04:44:59;12.50;99.90
54168;DHT22;40072;50.958;3.592;2022-10-16T04:47:24;12.50;99.90
54168;DHT22;40072;50.958;3.592;2022-10-16T04:49:50;12.50;99.90
54168;DHT22;40072;50.958;3.592;2022-10-16T04:52:16;12.50;99.90
54168;DHT22;40072;50.958;3.592;2022-10-16T04:54:42;12.40;99.90
54168;DHT22;40072;50.958;3.592;2022-10-16T04:57:10;12.50;99.90
54168;DHT22;40072;50.958;3.592;2022-10-16T04:59:36;12.50;99.90
54168;DHT22;40072;50.958;3.592;2022-10-16T05:02:01;12.50;99.90
54168;DHT22;40072;50.958;3.592;2022-10-16T05:04:27;12.50;99.90
54168;DHT22;40072;50.958;3.592;2022-10-16T05:06:53;12.50;99.90
54168;DHT22;40072;50.958;3.592;2022-10-16T05:09:18;12.50;99.90
54168;DHT22;40072;50.958;3.592;2022-10-16T05:11:44;12.50;99.90
54168;DHT22;40072;50.958;3.592;2022-10-16T05:14:09;12.60;99.90
54168;DHT22;40072;50.958;3.592;2022-10-16T05:16:35;12.70;99.90
54168;DHT22;40072;50.958;3.592;2022-10-16T05:19:01;12.70;99.90
54168;DHT22;40072;50.958;3.592;2022-10-16T05:21:26;12.80;99.90
54168;DHT22;40072;50.958;3.592;2022-10-16T05:23:53;12.90;99.90
54168;DHT22;40072;50.958;3.592;2022-10-16T05:26:19;12.90;99.90
54168;DHT22;40072;50.958;3.592;2022-10-16T05:28:46;12.90;99.90
54168;DHT22;40072;50.958;3.592;2022-10-16T05:31:12;13.00;99.90
54168;DHT22;40072;50.958;3.592;2022-10-16T05:33:38;13.00;99.90
54168;DHT22;40072;50.958;3.592;2022-10-16T05:36:05;13.00;99.90
54168;DHT22;40072;50.958;3.592;2022-10-16T05:38:36;13.10;99.90
54168;DHT22;40072;50.958;3.592;2022-10-16T05:41:02;13.10;99.90
54168;DHT22;40072;50.958;3.592;2022-10-16T05:43:28;13.10;99.90
54168;DHT22;40072;50.958;3.592;2022-10-16T05:46:04;13.10;99.90
54168;DHT22;40072;50.958;3.592;2022-10-16T05:48:31;13.10;99.90
54168;DHT22;40072;50.958;3.592;2022-10-16T05:51:06;13.10;99.90
54168;DHT22;40072;50.958;3.592;2022-10-16T05:53:34;13.10;99.90
54168;DHT22;40072;50.958;3.592;2022-10-16T05:56:01;13.10;99.90
54168;DHT22;40072;50.958;3.592;2022-10-16T05:58:31;13.10;99.90
54168;DHT22;40072;50.958;3.592;2022-10-16T06:01:12;13.00;99.90
54168;DHT22;40072;50.958;3.592;2022-10-16T06:03:38;12.90;99.90
54168;DHT22;40072;50.958;3.592;2022-10-16T06:06:08;12.90;99.90
54168;DHT22;40072;50.958;3.592;2022-10-16T06:08:34;12.80;99.90
54168;DHT22;40072;50.958;3.592;2022-10-16T06:11:02;12.80;99.90
54168;DHT22;40072;50.958;3.592;2022-10-16T06:13:28;12.80;99.90
54168;DHT22;40072;50.958;3.592;2022-10-16T06:15:57;12.70;99.90
54168;DHT22;40072;50.958;3.592;2022-10-16T06:18:23;12.70;99.90
54168;DHT22;40072;50.958;3.592;2022-10-16T06:20:49;12.70;99.90
54168;DHT22;40072;50.958;3.592;2022-10-16T06:23:15;12.60;99.90
54168;DHT22;40072;50.958;3.592;2022-10-16T06:25:40;12.60;99.90
54168;DHT22;40072;50.958;3.592;2022-10-16T06:28:06;12.60;99.90
54168;DHT22;40072;50.958;3.592;2022-10-16T06:30:31;12.60;99.90
54168;DHT22;40072;50.958;3.592;2022-10-16T06:32:57;12.50;99.90
54168;DHT22;40072;50.958;3.592;2022-10-16T06:35:23;12.50;99.90
54168;DHT22;40072;50.958;3.592;2022-10-16T06:37:49;12.50;99.90
54168;DHT22;40072;50.958;3.592;2022-10-16T06:40:14;12.40;99.90
54168;DHT22;40072;50.958;3.592;2022-10-16T06:42:41;12.50;99.90
54168;DHT22;40072;50.958;3.592;2022-10-16T06:45:07;12.40;99.90
54168;DHT22;40072;50.958;3.592;2022-10-16T06:47:33;12.50;99.90
54168;DHT22;40072;50.958;3.592;2022-10-16T06:49:59;12.50;99.90
54168;DHT22;40072;50.958;3.592;2022-10-16T06:52:24;12.50;99.90
54168;DHT22;40072;50.958;3.592;2022-10-16T06:54:52;12.60;99.90
54168;DHT22;40072;50.958;3.592;2022-10-16T06:57:18;12.60;99.90
54168;DHT22;40072;50.958;3.592;2022-10-16T06:59:44;12.60;99.90
54168;DHT22;40072;50.958;3.592;2022-10-16T07:02:09;12.60;99.90
54168;DHT22;40072;50.958;3.592;2022-10-16T07:04:36;12.60;99.90
54168;DHT22;40072;50.958;3.592;2022-10-16T07:07:02;12.80;99.90
54168;DHT22;40072;50.958;3.592;2022-10-16T07:09:27;12.90;99.90
54168;DHT22;40072;50.958;3.592;2022-10-16T07:11:53;13.10;99.90
54168;DHT22;40072;50.958;3.592;2022-10-16T07:14:21;13.20;99.90
54168;DHT22;40072;50.958;3.592;2022-10-16T07:16:47;13.40;99.90
54168;DHT22;40072;50.958;3.592;2022-10-16T07:19:14;13.60;99.90
54168;DHT22;40072;50.958;3.592;2022-10-16T07:21:41;13.70;99.90
54168;DHT22;40072;50.958;3.592;2022-10-16T07:24:12;13.70;99.90
54168;DHT22;40072;50.958;3.592;2022-10-16T07:26:39;13.70;99.90
54168;DHT22;40072;50.958;3.592;2022-10-16T07:29:16;13.60;99.90
54168;DHT22;40072;50.958;3.592;2022-10-16T07:31:42;13.60;99.90
54168;DHT22;40072;50.958;3.592;2022-10-16T07:34:09;13.60;99.90
54168;DHT22;40072;50.958;3.592;2022-10-16T07:36:35;13.70;99.90
54168;DHT22;40072;50.958;3.592;2022-10-16T07:39:00;13.80;99.90
54168;DHT22;40072;50.958;3.592;2022-10-16T07:41:27;13.90;99.90
54168;DHT22;40072;50.958;3.592;2022-10-16T07:43:54;14.00;99.90
54168;DHT22;40072;50.958;3.592;2022-10-16T07:46:22;13.90;99.90
54168;DHT22;40072;50.958;3.592;2022-10-16T07:48:48;13.90;99.90
54168;DHT22;40072;50.958;3.592;2022-10-16T07:51:16;13.90;99.90
54168;DHT22;40072;50.958;3.592;2022-10-16T07:53:41;14.30;99.90
54168;DHT22;40072;50.958;3.592;2022-10-16T07:56:08;14.60;99.90
54168;DHT22;40072;50.958;3.592;2022-10-16T07:58:34;15.40;99.90
54168;DHT22;40072;50.958;3.592;2022-10-16T08:01:10;15.40;99.90
54168;DHT22;40072;50.958;3.592;2022-10-16T08:03:37;15.10;99.90
54168;DHT22;40072;50.958;3.592;2022-10-16T08:06:03;15.00;99.90
54168;DHT22;40072;50.958;3.592;2022-10-16T08:08:30;15.00;99.90
54168;DHT22;40072;50.958;3.592;2022-10-16T08:10:56;14.90;99.90
54168;DHT22;40072;50.958;3.592;2022-10-16T08:13:21;14.90;99.90
54168;DHT22;40072;50.958;3.592;2022-10-16T08:15:47;15.10;99.90
54168;DHT22;40072;50.958;3.592;2022-10-16T08:18:15;15.50;99.90
54168;DHT22;40072;50.958;3.592;2022-10-16T08:20:41;15.60;99.90
54168;DHT22;40072;50.958;3.592;2022-10-16T08:23:09;15.70;99.90
54168;DHT22;40072;50.958;3.592;2022-10-16T08:25:35;16.00;99.90
54168;DHT22;40072;50.958;3.592;2022-10-16T08:28:05;16.10;99.90
54168;DHT22;40072;50.958;3.592;2022-10-16T08:30:31;16.20;99.90
54168;DHT22;40072;50.958;3.592;2022-10-16T08:32:57;16.30;99.90
54168;DHT22;40072;50.958;3.592;2022-10-16T08:35:23;16.30;99.90
54168;DHT22;40072;50.958;3.592;2022-10-16T08:37:49;16.30;99.90
54168;DHT22;40072;50.958;3.592;2022-10-16T08:43:26;15.90;99.90
54168;DHT22;40072;50.958;3.592;2022-10-16T08:48:53;16.20;99.90
54168;DHT22;40072;50.958;3.592;2022-10-16T08:51:35;16.30;99.90
54168;DHT22;40072;50.958;3.592;2022-10-16T08:54:03;16.20;99.90
54168;DHT22;40072;50.958;3.592;2022-10-16T08:56:29;16.40;99.90
54168;DHT22;40072;50.958;3.592;2022-10-16T08:58:58;16.50;99.90
54168;DHT22;40072;50.958;3.592;2022-10-16T09:01:37;16.40;99.90
54168;DHT22;40072;50.958;3.592;2022-10-16T09:04:32;16.60;99.90
54168;DHT22;40072;50.958;3.592;2022-10-16T09:07:20;16.50;99.90
54168;DHT22;40072;50.958;3.592;2022-10-16T09:10:08;16.70;99.90
54168;DHT22;40072;50.958;3.592;2022-10-16T09:18:07;17.10;99.90
54168;DHT22;40072;50.958;3.592;2022-10-16T09:20:45;17.80;99.90
54168;DHT22;40072;50.958;3.592;2022-10-16T09:23:17;17.80;99.90
54168;DHT22;40072;50.958;3.592;2022-10-16T09:25:45;18.10;99.90
54168;DHT22;40072;50.958;3.592;2022-10-16T09:28:13;17.80;99.90
54168;DHT22;40072;50.958;3.592;2022-10-16T09:30:39;17.60;99.90
54168;DHT22;40072;50.958;3.592;2022-10-16T09:33:06;17.70;99.90
54168;DHT22;40072;50.958;3.592;2022-10-16T09:35:43;18.00;99.90
54168;DHT22;40072;50.958;3.592;2022-10-16T09:38:24;18.20;99.90
54168;DHT22;40072;50.958;3.592;2022-10-16T09:40:50;18.10;99.90
54168;DHT22;40072;50.958;3.592;2022-10-16T09:43:22;17.90;99.90
54168;DHT22;40072;50.958;3.592;2022-10-16T09:46:00;18.10;99.90
54168;DHT22;40072;50.958;3.592;2022-10-16T09:48:31;18.00;99.90
54168;DHT22;40072;50.958;3.592;2022-10-16T09:51:01;18.60;99.90
54168;DHT22;40072;50.958;3.592;2022-10-16T09:53:39;19.40;99.90
54168;DHT22;40072;50.958;3.592;2022-10-16T09:56:06;19.40;99.90
54168;DHT22;40072;50.958;3.592;2022-10-16T09:58:32;19.30;99.90
54168;DHT22;40072;50.958;3.592;2022-10-16T10:00:58;20.10;99.90
54168;DHT22;40072;50.958;3.592;2022-10-16T10:03:37;20.90;99.90
54168;DHT22;40072;50.958;3.592;2022-10-16T10:11:55;25.70;96.70
54168;DHT22;40072;50.958;3.592;2022-10-16T10:16:50;26.10;93.50
54168;DHT22;40072;50.958;3.592;2022-10-16T10:19:18;25.70;93.90
54168;DHT22;40072;50.958;3.592;2022-10-16T10:21:45;24.80;94.20
54168;DHT22;40072;50.958;3.592;2022-10-16T10:24:12;23.80;95.90
54168;DHT22;40072;50.958;3.592;2022-10-16T10:26:45;24.80;94.80
54168;DHT22;40072;50.958;3.592;2022-10-16T10:32:02;24.90;94.20
54168;DHT22;40072;50.958;3.592;2022-10-16T10:35:16;23.60;94.90
54168;DHT22;40072;50.958;3.592;2022-10-16T10:43:32;23.50;96.60
54168;DHT22;40072;50.958;3.592;2022-10-16T10:46:05;25.00;94.30
54168;DHT22;40072;50.958;3.592;2022-10-16T10:51:37;26.50;92.70
54168;DHT22;40072;50.958;3.592;2022-10-16T10:59:27;27.80;91.20
54168;DHT22;40072;50.958;3.592;2022-10-16T11:02:03;27.70;90.90
54168;DHT22;40072;50.958;3.592;2022-10-16T11:04:49;27.40;91.40
54168;DHT22;40072;50.958;3.592;2022-10-16T11:07:30;28.40;90.30
54168;DHT22;40072;50.958;3.592;2022-10-16T11:13:16;28.30;89.30
54168;DHT22;40072;50.958;3.592;2022-10-16T11:15:47;28.20;89.40
54168;DHT22;40072;50.958;3.592;2022-10-16T11:18:22;28.10;90.00
54168;DHT22;40072;50.958;3.592;2022-10-16T11:21:04;27.30;90.00
54168;DHT22;40072;50.958;3.592;2022-10-16T11:26:13;25.40;91.50
54168;DHT22;40072;50.958;3.592;2022-10-16T11:28:53;24.20;93.30
54168;DHT22;40072;50.958;3.592;2022-10-16T11:31:35;23.90;93.40
54168;DHT22;40072;50.958;3.592;2022-10-16T11:36:54;25.20;92.00
54168;DHT22;40072;50.958;3.592;2022-10-16T11:39:24;26.50;91.30
54168;DHT22;40072;50.958;3.592;2022-10-16T11:47:36;27.20;88.60
54168;DHT22;40072;50.958;3.592;2022-10-16T11:50:26;28.30;84.90
54168;DHT22;40072;50.958;3.592;2022-10-16T11:55:43;27.70;87.20
54168;DHT22;40072;50.958;3.592;2022-10-16T12:03:46;26.70;85.90
54168;DHT22;40072;50.958;3.592;2022-10-16T12:06:24;26.00;87.90
54168;DHT22;40072;50.958;3.592;2022-10-16T12:08:52;25.80;89.70
54168;DHT22;40072;50.958;3.592;2022-10-16T12:16:39;26.00;90.00
54168;DHT22;40072;50.958;3.592;2022-10-16T12:19:16;25.20;90.20
54168;DHT22;40072;50.958;3.592;2022-10-16T12:21:43;24.80;90.80
54168;DHT22;40072;50.958;3.592;2022-10-16T12:26:48;27.00;90.40
54168;DHT22;40072;50.958;3.592;2022-10-16T12:31:54;26.60;88.50
54168;DHT22;40072;50.958;3.592;2022-10-16T12:36:54;25.10;90.80
54168;DHT22;40072;50.958;3.592;2022-10-16T12:39:24;25.10;91.60
54168;DHT22;40072;50.958;3.592;2022-10-16T12:42:05;25.70;90.80
54168;DHT22;40072;50.958;3.592;2022-10-16T12:44:35;26.10;90.30
54168;DHT22;40072;50.958;3.592;2022-10-16T12:47:02;26.20;90.60
54168;DHT22;40072;50.958;3.592;2022-10-16T12:51:54;24.60;91.00
54168;DHT22;40072;50.958;3.592;2022-10-16T12:54:31;24.40;92.30
54168;DHT22;40072;50.958;3.592;2022-10-16T12:57:38;24.40;91.60
54168;DHT22;40072;50.958;3.592;2022-10-16T13:00:22;23.70;92.20
54168;DHT22;40072;50.958;3.592;2022-10-16T13:05:56;23.40;93.00
54168;DHT22;40072;50.958;3.592;2022-10-16T13:11:16;22.50;94.00
54168;DHT22;40072;50.958;3.592;2022-10-16T13:13:50;21.90;95.10
54168;DHT22;40072;50.958;3.592;2022-10-16T13:19:44;21.60;96.20
54168;DHT22;40072;50.958;3.592;2022-10-16T13:22:33;21.90;95.60
54168;DHT22;40072;50.958;3.592;2022-10-16T13:27:46;21.90;96.10
54168;DHT22;40072;50.958;3.592;2022-10-16T13:30:24;22.00;96.40
54168;DHT22;40072;50.958;3.592;2022-10-16T13:33:11;22.10;96.50
54168;DHT22;40072;50.958;3.592;2022-10-16T13:35:50;23.80;94.40
54168;DHT22;40072;50.958;3.592;2022-10-16T13:38:18;25.40;92.00
54168;DHT22;40072;50.958;3.592;2022-10-16T13:40:55;24.90;91.80
54168;DHT22;40072;50.958;3.592;2022-10-16T13:43:25;23.70;92.70
54168;DHT22;40072;50.958;3.592;2022-10-16T13:46:03;22.60;94.10
54168;DHT22;40072;50.958;3.592;2022-10-16T13:48:30;21.80;94.40
54168;DHT22;40072;50.958;3.592;2022-10-16T13:51:02;21.50;95.80
54168;DHT22;40072;50.958;3.592;2022-10-16T13:53:30;21.50;96.40
54168;DHT22;40072;50.958;3.592;2022-10-16T13:55:56;21.20;96.60
54168;DHT22;40072;50.958;3.592;2022-10-16T13:58:22;21.20;97.00
54168;DHT22;40072;50.958;3.592;2022-10-16T14:00:57;21.30;96.90
54168;DHT22;40072;50.958;3.592;2022-10-16T14:03:24;21.50;96.00
54168;DHT22;40072;50.958;3.592;2022-10-16T14:05:55;21.50;96.10
54168;DHT22;40072;50.958;3.592;2022-10-16T14:08:24;21.70;95.50
54168;DHT22;40072;50.958;3.592;2022-10-16T14:10:55;21.90;95.50
54168;DHT22;40072;50.958;3.592;2022-10-16T14:14:05;21.70;94.90
54168;DHT22;40072;50.958;3.592;2022-10-16T14:16:30;21.60;95.30
54168;DHT22;40072;50.958;3.592;2022-10-16T14:19:02;21.60;95.60
54168;DHT22;40072;50.958;3.592;2022-10-16T14:21:29;21.30;96.20
54168;DHT22;40072;50.958;3.592;2022-10-16T14:23:56;20.80;97.40
54168;DHT22;40072;50.958;3.592;2022-10-16T14:26:27;20.90;98.10
54168;DHT22;40072;50.958;3.592;2022-10-16T14:29:14;20.80;98.20
54168;DHT22;40072;50.958;3.592;2022-10-16T14:31:40;20.30;98.70
54168;DHT22;40072;50.958;3.592;2022-10-16T14:34:31;20.30;99.40
54168;DHT22;40072;50.958;3.592;2022-10-16T14:37:06;20.40;99.80
54168;DHT22;40072;50.958;3.592;2022-10-16T14:39:34;20.20;99.90
54168;DHT22;40072;50.958;3.592;2022-10-16T14:42:00;19.90;99.90
54168;DHT22;40072;50.958;3.592;2022-10-16T14:44:32;19.80;99.90
54168;DHT22;40072;50.958;3.592;2022-10-16T14:47:06;19.80;99.90
54168;DHT22;40072;50.958;3.592;2022-10-16T14:49:32;19.70;99.90
54168;DHT22;40072;50.958;3.592;2022-10-16T14:51:58;19.60;99.90
54168;DHT22;40072;50.958;3.592;2022-10-16T14:54:24;19.40;99.90
54168;DHT22;40072;50.958;3.592;2022-10-16T14:56:55;19.40;99.90
54168;DHT22;40072;50.958;3.592;2022-10-16T14:59:40;19.40;99.90
54168;DHT22;40072;50.958;3.592;2022-10-16T15:04:43;19.10;99.90
54168;DHT22;40072;50.958;3.592;2022-10-16T15:07:08;19.10;99.90
54168;DHT22;40072;50.958;3.592;2022-10-16T15:09:34;18.90;99.90
54168;DHT22;40072;50.958;3.592;2022-10-16T15:11:59;19.00;99.90
54168;DHT22;40072;50.958;3.592;2022-10-16T15:14:25;18.90;99.90
54168;DHT22;40072;50.958;3.592;2022-10-16T15:16:51;19.00;99.90
54168;DHT22;40072;50.958;3.592;2022-10-16T15:19:16;19.10;99.90
54168;DHT22;40072;50.958;3.592;2022-10-16T15:21:42;19.00;99.90
54168;DHT22;40072;50.958;3.592;2022-10-16T15:24:12;18.90;99.90
54168;DHT22;40072;50.958;3.592;2022-10-16T15:26:38;18.80;99.90
54168;DHT22;40072;50.958;3.592;2022-10-16T15:29:04;18.70;99.90
54168;DHT22;40072;50.958;3.592;2022-10-16T15:31:30;18.80;99.90
54168;DHT22;40072;50.958;3.592;2022-10-16T15:33:56;18.70;99.90
54168;DHT22;40072;50.958;3.592;2022-10-16T15:36:37;18.80;99.90
54168;DHT22;40072;50.958;3.592;2022-10-16T15:39:05;19.00;99.90
54168;DHT22;40072;50.958;3.592;2022-10-16T15:41:31;18.70;99.90
54168;DHT22;40072;50.958;3.592;2022-10-16T15:43:57;18.50;99.90
54168;DHT22;40072;50.958;3.592;2022-10-16T15:46:23;18.40;99.90
54168;DHT22;40072;50.958;3.592;2022-10-16T15:48:51;18.30;99.90
54168;DHT22;40072;50.958;3.592;2022-10-16T15:51:20;18.00;99.90
54168;DHT22;40072;50.958;3.592;2022-10-16T15:53:46;17.90;99.90
54168;DHT22;40072;50.958;3.592;2022-10-16T15:56:13;17.80;99.90
54168;DHT22;40072;50.958;3.592;2022-10-16T15:58:39;17.80;99.90
54168;DHT22;40072;50.958;3.592;2022-10-16T16:01:05;18.10;99.90
54168;DHT22;40072;50.958;3.592;2022-10-16T16:03:32;18.10;99.90
54168;DHT22;40072;50.958;3.592;2022-10-16T16:05:58;18.00;99.90
54168;DHT22;40072;50.958;3.592;2022-10-16T16:08:28;18.10;99.90
54168;DHT22;40072;50.958;3.592;2022-10-16T16:10:58;18.10;99.90
54168;DHT22;40072;50.958;3.592;2022-10-16T16:13:24;18.20;99.90
54168;DHT22;40072;50.958;3.592;2022-10-16T16:15:50;18.10;99.90
54168;DHT22;40072;50.958;3.592;2022-10-16T16:18:15;17.90;99.90
54168;DHT22;40072;50.958;3.592;2022-10-16T16:20:41;17.80;99.90
54168;DHT22;40072;50.958;3.592;2022-10-16T16:23:06;17.90;99.90
54168;DHT22;40072;50.958;3.592;2022-10-16T16:25:32;17.80;99.90
54168;DHT22;40072;50.958;3.592;2022-10-16T16:27:58;17.60;99.90
54168;DHT22;40072;50.958;3.592;2022-10-16T16:30:23;17.80;99.90
54168;DHT22;40072;50.958;3.592;2022-10-16T16:32:49;18.00;99.90
54168;DHT22;40072;50.958;3.592;2022-10-16T16:35:14;17.70;99.90
54168;DHT22;40072;50.958;3.592;2022-10-16T16:37:40;17.60;99.90
54168;DHT22;40072;50.958;3.592;2022-10-16T16:40:06;17.60;99.90
54168;DHT22;40072;50.958;3.592;2022-10-16T16:42:31;17.50;99.90
54168;DHT22;40072;50.958;3.592;2022-10-16T16:44:57;17.70;99.90
54168;DHT22;40072;50.958;3.592;2022-10-16T16:47:23;17.90;99.90
54168;DHT22;40072;50.958;3.592;2022-10-16T16:49:48;17.90;99.90
54168;DHT22;40072;50.958;3.592;2022-10-16T16:52:15;17.70;99.90
54168;DHT22;40072;50.958;3.592;2022-10-16T16:54:40;17.70;99.90
54168;DHT22;40072;50.958;3.592;2022-10-16T16:57:06;17.80;99.90
54168;DHT22;40072;50.958;3.592;2022-10-16T16:59:32;17.90;99.90
54168;DHT22;40072;50.958;3.592;2022-10-16T17:01:59;17.50;99.90
54168;DHT22;40072;50.958;3.592;2022-10-16T17:04:25;17.30;99.90
54168;DHT22;40072;50.958;3.592;2022-10-16T17:06:55;17.00;99.90
54168;DHT22;40072;50.958;3.592;2022-10-16T17:09:21;17.00;99.90
54168;DHT22;40072;50.958;3.592;2022-10-16T17:11:47;17.30;99.90
54168;DHT22;40072;50.958;3.592;2022-10-16T17:14:14;17.20;99.90
54168;DHT22;40072;50.958;3.592;2022-10-16T17:16:40;17.10;99.90
54168;DHT22;40072;50.958;3.592;2022-10-16T17:19:12;16.90;99.90
54168;DHT22;40072;50.958;3.592;2022-10-16T17:21:38;16.90;99.90
54168;DHT22;40072;50.958;3.592;2022-10-16T17:24:04;17.00;99.90